createdAt,value
2023-03-15T06:29:30.501Z,3.55
2023-03-15T06:34:31.568Z,3.97
2023-03-15T06:37:34.522Z,5.40
2023-03-15T06:40:34.738Z,3.45
2023-03-15T06:46:02.957Z,3.33
2023-03-15T06:48:45.125Z,3.80
2023-03-15T06:51:18.492Z,3.30
2023-03-15T06:53:46.256Z,4.20
2023-03-15T06:57:25.831Z,3.47
2023-03-15T07:00:22.680Z,3.88
2023-03-15T07:15:33.596Z,3.17
2023-03-15T07:18:07.215Z,2.55
2023-03-15T07:20:40.966Z,2.97
2023-03-15T07:23:31.615Z,2.30
2023-03-15T07:30:44.330Z,2.65
2023-03-15T07:33:13.253Z,5.13
2023-03-15T07:35:46.009Z,3.63
2023-03-15T07:38:25.121Z,3.55
2023-03-15T07:41:03.890Z,3.30
2023-03-15T07:43:35.481Z,2.17
2023-03-15T07:46:14.392Z,3.15
2023-03-15T07:49:20.668Z,3.10
2023-03-15T07:59:42.861Z,1.90
2023-03-15T08:02:17.492Z,1.92
2023-03-15T08:14:11.948Z,2.55
2023-03-15T08:16:39.287Z,2.08
2023-03-15T08:19:06.244Z,2.33
2023-03-15T08:21:34.171Z,2.20
2023-03-15T08:24:01.726Z,2.05
2023-03-15T08:26:29.066Z,2.15
2023-03-15T08:28:58.292Z,2.10
2023-03-15T08:31:25.411Z,1.77
2023-03-15T08:33:52.521Z,2.25
2023-03-15T08:36:20.243Z,2.03
2023-03-15T08:38:47.573Z,1.70
2023-03-15T08:41:15.043Z,1.30
2023-03-15T08:43:41.966Z,1.58
2023-03-15T08:46:09.015Z,1.80
2023-03-15T08:48:36.060Z,1.85
2023-03-15T08:51:08.954Z,1.85
2023-03-15T08:53:35.935Z,1.80
2023-03-15T08:56:02.785Z,2.08
2023-03-15T08:58:30.125Z,2.03
2023-03-15T09:00:59.999Z,1.98
2023-03-15T09:03:32.798Z,2.13
2023-03-15T09:06:01.052Z,2.00
2023-03-15T09:08:28.101Z,2.60
2023-03-15T09:10:59.737Z,1.67
2023-03-15T09:13:29.344Z,2.38
2023-03-15T09:15:57.896Z,2.15
2023-03-15T09:18:26.851Z,2.45
2023-03-15T09:20:53.944Z,3.15
2023-03-15T09:23:21.055Z,2.15
2023-03-15T09:25:49.299Z,2.10
2023-03-15T09:28:18.942Z,2.78
2023-03-15T09:30:45.958Z,2.05
2023-03-15T09:33:14.829Z,3.25
2023-03-15T09:35:42.264Z,2.88
2023-03-15T09:38:10.111Z,2.50
2023-03-15T09:40:45.387Z,2.58
2023-03-15T09:43:38.851Z,2.40
2023-03-15T09:46:58.432Z,2.80
2023-03-15T09:49:49.271Z,2.60
2023-03-15T09:52:32.370Z,2.33
2023-03-15T09:55:03.130Z,2.78
2023-03-15T09:57:42.576Z,2.42
2023-03-15T10:00:19.431Z,2.80
2023-03-15T10:03:01.677Z,2.85
2023-03-15T10:05:42.104Z,2.28
2023-03-15T10:08:15.790Z,2.42
2023-03-15T10:11:25.528Z,2.50
2023-03-15T10:14:17.281Z,3.08
2023-03-15T10:16:48.168Z,2.17
2023-03-15T10:20:03.620Z,2.55
2023-03-15T10:23:02.007Z,2.63
2023-03-15T10:25:49.538Z,2.63
2023-03-15T10:28:34.780Z,2.40
2023-03-15T10:31:32.805Z,2.70
2023-03-15T10:34:11.527Z,3.05
2023-03-15T10:36:44.868Z,2.50
2023-03-15T10:39:13.007Z,2.10
2023-03-15T10:41:43.342Z,2.25
2023-03-15T10:44:24.367Z,2.20
2023-03-15T10:47:23.432Z,2.28
2023-03-15T10:49:58.308Z,2.88
2023-03-15T10:52:40.708Z,2.65
2023-03-15T10:55:18.548Z,2.15
2023-03-15T10:58:02.327Z,2.53
2023-03-15T11:00:36.311Z,2.55
2023-03-15T11:03:26.560Z,2.67
2023-03-15T11:05:57.637Z,3.30
2023-03-15T11:08:38.775Z,3.05
2023-03-15T11:11:08.272Z,2.88
2023-03-15T11:13:39.058Z,3.47
2023-03-15T11:16:24.207Z,2.00
2023-03-15T11:18:59.636Z,2.25
2023-03-15T11:21:35.583Z,2.42
2023-03-15T11:24:06.124Z,2.13
2023-03-15T11:26:51.406Z,2.38
2023-03-15T11:29:31.505Z,2.50
2023-03-15T11:32:06.599Z,2.22
2023-03-15T11:35:05.255Z,2.47
2023-03-15T11:37:55.231Z,2.22
2023-03-15T11:40:39.714Z,2.13
2023-03-15T11:43:29.242Z,2.38
2023-03-15T11:46:05.677Z,1.40
2023-03-15T11:48:57.577Z,1.52
2023-03-15T11:51:24.770Z,1.23
2023-03-15T11:54:18.480Z,1.20
2023-03-15T11:56:51.759Z,1.23
2023-03-15T11:59:32.871Z,1.17
2023-03-15T12:02:14.666Z,1.20
2023-03-15T12:04:54.264Z,2.17
2023-03-15T12:07:23.966Z,1.55
2023-03-15T12:10:04.330Z,1.98
2023-03-15T12:12:31.225Z,1.75
2023-03-15T12:15:19.860Z,1.20
2023-03-15T12:17:54.832Z,1.60
2023-03-15T12:20:43.049Z,1.40
2023-03-15T12:23:20.139Z,1.30
2023-03-15T12:26:02.282Z,1.55
2023-03-15T12:28:50.673Z,1.40
2023-03-15T12:31:19.547Z,2.28
2023-03-15T12:33:52.438Z,1.35
2023-03-15T12:36:39.957Z,1.98
2023-03-15T12:39:09.893Z,1.92
2023-03-15T12:41:40.620Z,1.63
2023-03-15T12:44:32.714Z,1.40
2023-03-15T12:47:03.887Z,1.60
2023-03-15T12:49:44.177Z,2.30
2023-03-15T12:52:11.004Z,1.90
2023-03-15T12:55:05.950Z,2.42
2023-03-15T12:57:48.632Z,1.90
2023-03-15T13:00:23.279Z,1.95
2023-03-15T13:03:02.329Z,2.00
2023-03-15T13:05:46.970Z,1.75
2023-03-15T13:08:45.339Z,2.22
2023-03-15T13:11:40.157Z,2.00
2023-03-15T13:14:35.030Z,2.13
2023-03-15T13:17:17.100Z,2.08
2023-03-15T13:19:50.276Z,1.98
2023-03-15T13:22:54.908Z,2.00
2023-03-15T13:25:39.375Z,2.50
2023-03-15T13:28:37.185Z,1.70
2023-03-15T13:31:19.455Z,2.15
2023-03-15T13:33:57.353Z,2.15
2023-03-15T13:36:49.132Z,1.60
2023-03-15T13:39:24.786Z,1.50
2023-03-15T13:42:19.476Z,1.60
2023-03-15T13:44:46.519Z,1.55
2023-03-15T13:47:22.539Z,1.40
2023-03-15T13:52:34.569Z,1.48
2023-03-15T13:55:03.140Z,1.45
2023-03-15T13:57:33.286Z,1.60
2023-03-15T14:00:19.102Z,1.73
2023-03-15T14:02:59.497Z,1.48
2023-03-15T14:05:32.267Z,1.52
2023-03-15T14:08:38.461Z,1.75
2023-03-15T14:11:12.177Z,1.77
2023-03-15T14:13:54.085Z,1.90
2023-03-15T14:17:01.278Z,1.52
2023-03-15T14:19:35.691Z,1.65
2023-03-15T14:22:18.126Z,1.55
2023-03-15T14:24:51.909Z,1.30
2023-03-15T14:27:25.132Z,1.45
2023-03-15T14:29:57.760Z,1.52
2023-03-15T14:32:27.349Z,1.40
2023-03-15T14:35:30.244Z,1.50
2023-03-15T14:38:02.649Z,1.45
2023-03-15T14:40:39.150Z,1.42
2023-03-15T14:43:09.439Z,1.35
2023-03-15T14:45:40.471Z,1.38
2023-03-15T14:48:30.536Z,1.90
2023-03-15T14:50:57.859Z,1.40
2023-03-15T14:53:31.544Z,1.88
2023-03-15T14:55:58.433Z,2.65
2023-03-15T14:58:25.409Z,1.90
2023-03-15T15:00:55.908Z,1.60
2023-03-15T15:03:41.187Z,1.60
2023-03-15T15:06:13.755Z,2.17
2023-03-15T15:08:47.482Z,1.27
2023-03-15T15:11:15.702Z,1.05
2023-03-15T15:13:42.771Z,1.00
2023-03-15T15:16:10.232Z,1.00
2023-03-15T15:18:38.055Z,1.83
2023-03-15T15:21:13.712Z,0.60
2023-03-15T15:23:57.400Z,0.80
2023-03-15T15:26:29.024Z,0.70
2023-03-15T15:28:56.793Z,0.77
2023-03-15T15:31:34.654Z,0.95
2023-03-15T15:34:02.086Z,1.35
2023-03-15T15:36:33.974Z,0.70
2023-03-15T15:39:06.517Z,1.05
2023-03-15T15:41:34.570Z,0.80
2023-03-15T15:44:01.786Z,1.10
2023-03-15T15:46:28.968Z,1.10
2023-03-15T15:48:55.942Z,1.15
2023-03-15T15:51:41.613Z,1.00
2023-03-15T15:56:50.204Z,1.45
2023-03-15T15:59:18.594Z,0.90
2023-03-15T16:01:59.740Z,1.02
2023-03-15T16:04:27.823Z,1.00
2023-03-15T16:06:59.697Z,1.20
2023-03-15T16:09:30.516Z,1.15
2023-03-15T16:11:58.409Z,1.30
2023-03-15T16:14:26.913Z,1.13
2023-03-15T16:16:53.811Z,1.05
2023-03-15T16:19:20.733Z,1.08
2023-03-15T16:21:54.306Z,1.17
2023-03-15T16:24:31.460Z,1.10
2023-03-15T16:27:07.218Z,1.00
2023-03-15T16:29:53.419Z,1.05
2023-03-15T16:32:37.242Z,1.52
2023-03-15T16:35:16.174Z,1.40
2023-03-15T16:37:45.456Z,1.40
2023-03-15T16:40:35.099Z,1.50
2023-03-15T16:43:03.148Z,1.10
2023-03-15T16:45:30.820Z,1.20
2023-03-15T16:47:57.746Z,1.30
2023-03-15T16:50:24.855Z,1.23
2023-03-15T16:52:56.707Z,1.83
2023-03-15T16:55:32.948Z,1.10
2023-03-15T16:58:04.517Z,1.40
2023-03-15T17:00:34.081Z,1.27
2023-03-15T17:03:01.667Z,1.13
2023-03-15T17:05:28.745Z,1.25
2023-03-15T17:07:56.436Z,0.85
2023-03-15T17:10:31.995Z,1.20
2023-03-15T17:13:01.988Z,1.65
2023-03-15T17:15:30.576Z,0.93
2023-03-15T17:17:58.354Z,1.10
2023-03-15T17:20:30.944Z,1.23
2023-03-15T17:23:04.165Z,1.00
2023-03-15T17:25:32.835Z,0.80
2023-03-15T17:28:03.142Z,1.10
2023-03-15T17:30:33.040Z,1.00
2023-03-15T17:33:01.205Z,0.90
2023-03-15T17:35:51.297Z,1.23
2023-03-15T17:38:21.762Z,1.05
2023-03-15T17:40:49.908Z,1.30
2023-03-15T17:43:17.459Z,1.02
2023-03-15T17:45:44.829Z,1.50
2023-03-15T17:48:12.345Z,2.55
2023-03-15T17:50:42.249Z,2.25
2023-03-15T17:53:18.647Z,2.53
2023-03-15T17:55:55.957Z,2.50
2023-03-15T17:58:31.819Z,1.75
2023-03-15T18:00:59.444Z,1.80
2023-03-15T18:03:27.477Z,2.05
2023-03-15T18:05:55.036Z,1.55
2023-03-15T18:08:22.773Z,1.60
2023-03-15T18:10:51.574Z,1.83
2023-03-15T18:13:32.214Z,2.03
2023-03-15T18:15:59.848Z,1.55
2023-03-15T18:18:27.379Z,2.08
2023-03-15T18:20:55.159Z,1.98
2023-03-15T18:23:22.624Z,2.63
2023-03-15T18:25:52.396Z,1.83
2023-03-15T18:28:19.916Z,1.73
2023-03-15T18:30:47.309Z,2.00
2023-03-15T18:33:16.157Z,1.60
2023-03-15T18:35:46.378Z,1.77
2023-03-15T18:38:16.136Z,3.15
2023-03-15T18:40:43.731Z,4.60
2023-03-15T18:43:14.518Z,3.38
2023-03-15T18:45:42.080Z,3.15
2023-03-15T18:48:09.667Z,3.50
2023-03-15T18:50:37.123Z,2.92
2023-03-15T18:53:06.289Z,2.70
2023-03-15T18:55:34.702Z,3.22
2023-03-15T18:58:02.359Z,3.20
2023-03-15T19:00:32.759Z,3.13
2023-03-15T19:03:02.191Z,3.63
2023-03-15T19:05:34.578Z,3.88
2023-03-15T19:08:02.551Z,4.40
2023-03-15T19:10:32.895Z,3.33
2023-03-15T19:13:02.021Z,3.90
2023-03-15T19:15:31.133Z,4.15
2023-03-15T19:17:58.659Z,4.60
2023-03-15T19:20:26.684Z,5.13
2023-03-15T19:22:54.242Z,4.88
2023-03-15T19:25:22.828Z,5.20
2023-03-15T19:27:50.449Z,5.22
2023-03-15T19:30:22.176Z,4.53
2023-03-15T19:32:51.457Z,4.80
2023-03-15T19:35:20.554Z,3.80
2023-03-15T19:37:48.751Z,2.40
2023-03-15T19:40:16.981Z,2.60
2023-03-15T19:42:44.811Z,2.47
2023-03-15T19:45:12.928Z,2.60
2023-03-15T19:47:41.694Z,2.50
2023-03-15T19:50:13.228Z,2.17
2023-03-15T19:52:46.239Z,1.88
2023-03-15T19:55:16.904Z,1.80
2023-03-15T19:57:45.268Z,2.03
2023-03-15T20:00:16.076Z,1.85
2023-03-15T20:02:44.775Z,3.13
2023-03-15T20:05:15.085Z,2.20
2023-03-15T20:07:43.563Z,1.95
2023-03-15T20:10:12.668Z,1.73
2023-03-15T20:12:45.536Z,1.70
2023-03-15T20:15:15.383Z,2.03
2023-03-15T20:17:43.352Z,1.77
2023-03-15T20:20:13.867Z,2.25
2023-03-15T20:22:43.394Z,1.98
2023-03-15T20:25:13.122Z,3.88
2023-03-15T20:27:41.012Z,2.22
2023-03-15T20:30:10.232Z,2.30
2023-03-15T20:32:37.822Z,2.10
2023-03-15T20:35:09.075Z,3.15
2023-03-15T20:37:40.371Z,2.78
2023-03-15T20:40:11.738Z,3.90
2023-03-15T20:42:40.493Z,2.60
2023-03-15T20:45:10.411Z,3.30
2023-03-15T20:47:38.151Z,2.55
2023-03-15T20:50:10.139Z,2.50
2023-03-15T20:52:37.889Z,2.97
2023-03-15T20:55:06.127Z,2.85
2023-03-15T20:57:33.498Z,2.67
2023-03-15T21:00:00.838Z,3.35
2023-03-15T21:02:28.149Z,2.72
2023-03-15T21:04:55.499Z,3.00
2023-03-15T21:07:22.918Z,3.03
2023-03-15T21:09:50.273Z,3.35
2023-03-15T21:12:19.203Z,2.88
2023-03-15T21:14:46.567Z,3.10
2023-03-15T21:17:14.361Z,2.80
2023-03-15T21:19:42.124Z,3.13
2023-03-15T21:22:09.734Z,3.15
2023-03-15T21:24:49.407Z,2.75
2023-03-15T21:27:22.033Z,3.85
2023-03-15T21:29:49.741Z,2.97
2023-03-15T21:32:17.006Z,3.15
2023-03-15T21:34:44.913Z,3.30
2023-03-15T21:37:12.292Z,3.03
2023-03-15T21:39:39.621Z,3.00
2023-03-15T21:42:06.912Z,3.40
2023-03-15T21:44:34.307Z,3.58
2023-03-15T21:47:04.366Z,3.83
2023-03-15T21:49:32.802Z,2.85
2023-03-15T21:52:01.767Z,3.35
2023-03-15T21:54:29.401Z,3.70
2023-03-15T21:56:57.172Z,3.67
2023-03-15T21:59:27.779Z,3.85
2023-03-15T22:01:56.759Z,3.78
2023-03-15T22:04:24.657Z,3.85
2023-03-15T22:06:54.853Z,4.07
2023-03-15T22:09:23.813Z,3.95
2023-03-15T22:11:51.721Z,3.50
2023-03-15T22:14:28.525Z,4.38
2023-03-15T22:16:56.449Z,4.60
2023-03-15T22:19:23.720Z,3.97
2023-03-15T22:21:50.990Z,4.07
2023-03-15T22:24:18.245Z,4.38
2023-03-15T22:26:46.029Z,5.38
2023-03-15T22:29:13.311Z,4.10
2023-03-15T22:31:40.583Z,4.30
2023-03-15T22:34:07.892Z,4.13
2023-03-15T22:36:35.173Z,4.75
2023-03-15T22:39:03.468Z,4.25
2023-03-15T22:41:30.776Z,3.97
2023-03-15T22:43:58.137Z,5.15
2023-03-15T22:46:26.109Z,4.30
2023-03-15T22:48:54.333Z,3.67
2023-03-15T22:51:21.951Z,4.53
2023-03-15T22:53:49.610Z,4.85
2023-03-15T22:56:17.313Z,4.45
2023-03-15T22:58:44.757Z,4.30
2023-03-15T23:01:12.078Z,4.45
2023-03-15T23:03:39.475Z,4.35
2023-03-15T23:06:06.907Z,3.85
2023-03-15T23:08:34.394Z,3.83
2023-03-15T23:11:01.671Z,4.10
2023-03-15T23:13:28.963Z,4.60
2023-03-15T23:15:56.411Z,4.03
2023-03-15T23:18:24.068Z,5.70
2023-03-15T23:20:51.529Z,4.50
2023-03-15T23:23:18.823Z,5.20
2023-03-15T23:25:46.854Z,4.57
2023-03-15T23:28:17.103Z,5.03
2023-03-15T23:30:45.791Z,4.63
2023-03-15T23:33:13.485Z,4.32
2023-03-15T23:35:41.963Z,3.55
2023-03-15T23:38:09.460Z,3.97
2023-03-15T23:40:36.820Z,4.20
2023-03-15T23:43:04.278Z,4.45
2023-03-15T23:45:31.882Z,4.18
2023-03-15T23:48:02.195Z,5.00
2023-03-15T23:50:30.088Z,4.50
2023-03-15T23:52:59.316Z,4.55
2023-03-15T23:55:26.632Z,5.72
2023-03-15T23:57:54.033Z,4.15
